메인 페이지
METAR-TAF:

METAR-TAF

공항 :

레오나르도 다 빈치 국제공항

로마 피우미치노, 이탈리아

위도: 41-48N, 경도: 012-14E, 고도: 2m

현재 날씨관측

예보는 37분 전, 02:50시(UTC)에 발표되었습니다.
여러 방향의 바람 2kt
온도 21°C
습도 88%
기압 1013 hPa
시정 10km 이상
1500m 미만 상공 구름 및 적란운 없음

METAR: LIRF 170250Z VRB02KT CAVOK 21/19 Q1013 NOSIG

시각: 05:27 (03:27 UTC)

예보

예보는 4 시간 27분 전, 23:00시(UTC)에 발표되었습니다.
예보 대상 시간: 17일 00시부터 18일 06시까지 (UTC)
북동6kt
시정 10km 이상
고도 3000ft 상공 구름 보통
전환 중
17일 08시부터 17일 10시까지 (UTC)
12kt
일시적
17일 12시부터 17일 17시까지 (UTC)
시정: 4000m
소나기
전환 중
17일 18시부터 17일 20시까지 (UTC)
여러 방향의 바람 4kt

TAF: LIRF 162300Z 1700/1806 04006KT 9999 SCT030 BECMG 1708/1710 28012KT TEMPO 1712/1717 4000 SHRA BECMG 1718/1720 VRB04KT

4,000개 이상의 공항 관측 자료 및 예보 (METAR 및 TAF 보고).

지도상에서 검색 가능한 기상관측소가 노란 점과 빨간 점으로 표시되어 있습니다.

기상관측소 명을 보려면 표시 위로 마우스를 이동하세요.

날씨 관측과 예보를 보려면 클릭하세요.

지도 변경 : 확대하려면 엑스 표시가 있는 녹색 버튼, 축소하려면 빼기 표시가 있는 녹색 버튼, 다음 페이지의 지도를 보려면 녹색 화살표를 클릭하세요.


METAR-TAF: